createdAt,value
2018-04-01T00:00:17.797Z,928.38
2018-04-01T00:01:17.699Z,928.44
2018-04-01T00:02:17.601Z,928.35
2018-04-01T00:03:17.539Z,928.41
2018-04-01T00:04:17.412Z,928.41
2018-04-01T00:05:17.309Z,928.39
2018-04-01T00:06:17.217Z,928.42
2018-04-01T00:07:17.117Z,928.39
2018-04-01T00:08:17.056Z,928.42
2018-04-01T00:09:16.924Z,928.41
2018-04-01T00:10:16.828Z,928.42
2018-04-01T00:11:16.732Z,928.43
2018-04-01T00:12:16.730Z,928.51
2018-04-01T00:13:16.570Z,928.47
2018-04-01T00:14:16.447Z,928.47
2018-04-01T00:15:16.387Z,928.46
2018-04-01T00:16:16.251Z,928.45
2018-04-01T00:17:16.146Z,928.47
2018-04-01T00:18:16.052Z,928.48
2018-04-01T00:19:15.984Z,928.43
2018-04-01T00:20:15.858Z,928.41
2018-04-01T00:21:15.760Z,928.39
2018-04-01T00:22:15.663Z,928.39
2018-04-01T00:23:15.568Z,928.44
2018-04-01T00:24:15.512Z,928.39
2018-04-01T00:25:15.371Z,928.44
2018-04-01T00:26:15.365Z,928.43
2018-04-01T00:27:15.175Z,928.42
2018-04-01T00:28:15.082Z,928.41
2018-04-01T00:29:15.015Z,928.43
2018-04-01T00:30:14.885Z,928.46
2018-04-01T00:31:14.791Z,928.47
2018-04-01T00:32:14.690Z,928.44
2018-04-01T00:33:14.690Z,928.45
2018-04-01T00:34:14.529Z,928.48
2018-04-01T00:35:14.399Z,928.47
2018-04-01T00:36:14.301Z,928.49
2018-04-01T00:37:14.205Z,928.55
2018-04-01T00:38:14.107Z,928.56
2018-04-01T00:39:14.043Z,928.56
2018-04-01T00:40:14.011Z,928.58
2018-04-01T00:41:13.814Z,928.55
2018-04-01T00:42:13.718Z,928.64
2018-04-01T00:43:13.636Z,928.56
2018-04-01T00:44:13.553Z,928.63
2018-04-01T00:45:13.422Z,928.59
2018-04-01T00:46:13.329Z,928.60
2018-04-01T00:47:13.333Z,928.64
2018-04-01T00:48:13.139Z,928.63
2018-04-01T00:49:13.068Z,928.57
2018-04-01T00:50:12.939Z,928.61
2018-04-01T00:51:12.842Z,928.60
2018-04-01T00:52:12.742Z,928.62
2018-04-01T00:53:12.646Z,928.65
2018-04-01T00:54:12.673Z,928.61
2018-04-01T00:55:12.452Z,928.61
2018-04-01T00:56:12.354Z,928.59
2018-04-01T00:57:12.256Z,928.58
2018-04-01T00:58:12.178Z,928.64
2018-04-01T00:59:12.092Z,928.60
2018-04-01T01:00:11.965Z,928.66
2018-04-01T01:01:11.884Z,928.67
2018-04-01T01:02:11.770Z,928.71
2018-04-01T01:03:11.928Z,928.65
2018-04-01T01:04:11.605Z,928.70
2018-04-01T01:05:11.475Z,928.68
2018-04-01T01:06:11.384Z,928.71
2018-04-01T01:07:11.283Z,928.69
2018-04-01T01:08:11.187Z,928.72
2018-04-01T01:09:11.210Z,928.73
2018-04-01T01:10:10.989Z,928.73
2018-04-01T01:11:10.893Z,928.74
2018-04-01T01:12:10.813Z,928.73
2018-04-01T01:13:10.700Z,928.72
2018-04-01T01:14:10.632Z,928.72
2018-04-01T01:15:10.503Z,928.69
2018-04-01T01:16:10.503Z,928.74
2018-04-01T01:17:10.309Z,928.72
2018-04-01T01:18:10.214Z,928.73
2018-04-01T01:19:10.146Z,928.71
2018-04-01T01:20:10.021Z,928.70
2018-04-01T01:21:09.923Z,928.68
2018-04-01T01:22:09.823Z,928.72
2018-04-01T01:23:09.819Z,928.73
2018-04-01T01:24:09.662Z,928.72
2018-04-01T01:25:09.533Z,928.77
2018-04-01T01:26:09.435Z,928.77
2018-04-01T01:27:09.340Z,928.76
2018-04-01T01:28:09.245Z,928.74
2018-04-01T01:29:09.176Z,928.77
2018-04-01T01:30:09.141Z,928.77
2018-04-01T01:31:08.950Z,928.76
2018-04-01T01:32:08.850Z,928.72
2018-04-01T01:33:08.754Z,928.77
2018-04-01T01:34:08.692Z,928.76
2018-04-01T01:35:08.560Z,928.76
2018-04-01T01:36:08.468Z,928.74
2018-04-01T01:37:08.364Z,928.77
2018-04-01T01:38:08.272Z,928.76
2018-04-01T01:39:08.203Z,928.79
2018-04-01T01:40:08.073Z,928.80
2018-04-01T01:41:07.975Z,928.77
2018-04-01T01:42:07.880Z,928.76
2018-04-01T01:43:07.783Z,928.73
2018-04-01T01:44:07.814Z,928.74
2018-04-01T01:45:07.590Z,928.69
2018-04-01T01:46:07.492Z,928.76
2018-04-01T01:47:07.394Z,928.77
2018-04-01T01:48:07.298Z,928.72
2018-04-01T01:49:07.202Z,928.81
2018-04-01T01:50:07.224Z,928.76
2018-04-01T01:51:07.007Z,928.75
2018-04-01T01:52:06.912Z,928.79
2018-04-01T01:53:06.810Z,928.79
2018-04-01T01:54:06.715Z,928.81
2018-04-01T01:55:06.647Z,928.81
2018-04-01T01:56:06.519Z,928.79
2018-04-01T01:57:06.422Z,928.82
2018-04-01T01:58:06.355Z,928.80
2018-04-01T01:59:06.228Z,928.80
2018-04-01T02:00:06.172Z,928.83
2018-04-01T02:01:06.035Z,928.85
2018-04-01T02:02:05.937Z,928.81
2018-04-01T02:03:05.840Z,928.80
2018-04-01T02:04:05.742Z,928.83
2018-04-01T02:05:05.679Z,928.81
2018-04-01T02:06:05.548Z,928.83
2018-04-01T02:07:05.451Z,928.79
2018-04-01T02:08:05.357Z,928.85
2018-04-01T02:09:05.256Z,928.81
2018-04-01T02:10:05.191Z,928.86
2018-04-01T02:11:05.071Z,928.84
2018-04-01T02:12:04.965Z,928.80
2018-04-01T02:13:04.867Z,928.80
2018-04-01T02:14:04.772Z,928.82
2018-04-01T02:15:04.704Z,928.80
2018-04-01T02:16:04.575Z,928.82
2018-04-01T02:17:04.477Z,928.86
2018-04-01T02:18:04.382Z,928.82
2018-04-01T02:19:04.282Z,928.78
2018-04-01T02:20:04.218Z,928.81
2018-04-01T02:21:04.086Z,928.74
2018-04-01T02:22:03.990Z,928.78
2018-04-01T02:23:03.892Z,928.76
2018-04-01T02:24:03.797Z,928.77
2018-04-01T02:25:03.728Z,928.79
2018-04-01T02:26:03.601Z,928.80
2018-04-01T02:27:03.505Z,928.83
2018-04-01T02:28:03.406Z,928.79
2018-04-01T02:29:03.309Z,928.86
2018-04-01T02:30:03.244Z,928.89
2018-04-01T02:31:03.114Z,928.89
2018-04-01T02:32:03.018Z,928.88
2018-04-01T02:33:02.925Z,928.85
2018-04-01T02:34:02.820Z,928.88
2018-04-01T02:35:02.757Z,928.94
2018-04-01T02:36:02.637Z,928.88
2018-04-01T02:37:02.532Z,928.91
2018-04-01T02:38:02.434Z,928.87
2018-04-01T02:39:02.333Z,928.89
2018-04-01T02:40:02.269Z,928.90
2018-04-01T02:41:02.141Z,928.92
2018-04-01T02:42:02.042Z,928.90
2018-04-01T02:43:01.949Z,928.94
2018-04-01T02:44:01.849Z,928.95
2018-04-01T02:45:01.778Z,928.97
2018-04-01T02:46:01.650Z,928.96
2018-04-01T02:47:01.552Z,928.94
2018-04-01T02:48:01.456Z,929.00
2018-04-01T02:49:01.355Z,929.01
2018-04-01T02:50:01.306Z,928.99
2018-04-01T02:51:01.170Z,929.05
2018-04-01T02:52:01.066Z,929.06
2018-04-01T02:53:00.963Z,929.07
2018-04-01T02:54:00.872Z,929.07
2018-04-01T02:55:00.807Z,929.07
2018-04-01T02:56:00.676Z,929.13
2018-04-01T02:57:00.575Z,929.13
2018-04-01T02:58:00.482Z,929.09
2018-04-01T02:59:00.383Z,929.15
2018-04-01T03:00:00.288Z,929.21
2018-04-01T03:01:00.217Z,929.20
2018-04-01T03:02:00.092Z,929.23
2018-04-01T03:02:59.991Z,929.15
2018-04-01T03:03:59.895Z,929.18
2018-04-01T03:04:59.794Z,929.14
2018-04-01T03:05:59.705Z,929.16
2018-04-01T03:06:59.632Z,929.14
2018-04-01T03:07:59.502Z,929.14
2018-04-01T03:08:59.406Z,929.12
2018-04-01T03:09:59.306Z,929.16
2018-04-01T03:10:59.242Z,929.17
2018-04-01T03:11:59.112Z,929.19
2018-04-01T03:12:59.012Z,929.21
2018-04-01T03:13:59.007Z,929.20
2018-04-01T03:14:58.819Z,929.18
2018-04-01T03:15:58.723Z,929.19
2018-04-01T03:16:58.650Z,929.23
2018-04-01T03:17:58.525Z,929.21
2018-04-01T03:18:58.437Z,929.23
2018-04-01T03:19:58.328Z,929.26
2018-04-01T03:20:58.322Z,929.24
2018-04-01T03:21:58.166Z,929.27
2018-04-01T03:22:58.035Z,929.30
2018-04-01T03:23:57.936Z,929.31
2018-04-01T03:24:57.840Z,929.30
2018-04-01T03:25:57.740Z,929.32
2018-04-01T03:26:57.697Z,929.28
2018-04-01T03:27:57.643Z,929.29
2018-04-01T03:28:57.452Z,929.28
2018-04-01T03:29:57.346Z,929.31
2018-04-01T03:30:57.271Z,929.30
2018-04-01T03:31:57.162Z,929.27
2018-04-01T03:32:57.086Z,929.28
2018-04-01T03:33:56.960Z,929.32
2018-04-01T03:34:56.954Z,929.30
2018-04-01T03:35:56.763Z,929.26
2018-04-01T03:36:56.668Z,929.23
2018-04-01T03:37:56.599Z,929.23
2018-04-01T03:38:56.470Z,929.24
2018-04-01T03:39:56.373Z,929.21
2018-04-01T03:40:56.273Z,929.25
2018-04-01T03:41:56.265Z,929.19
2018-04-01T03:42:56.080Z,929.19
2018-04-01T03:43:56.010Z,929.28
2018-04-01T03:44:55.879Z,929.27
2018-04-01T03:45:55.782Z,929.35
2018-04-01T03:46:55.684Z,929.32
2018-04-01T03:47:55.587Z,929.35
2018-04-01T03:48:55.623Z,929.35
2018-04-01T03:49:55.390Z,929.37
2018-04-01T03:50:55.292Z,929.37
2018-04-01T03:51:55.194Z,929.38
2018-04-01T03:52:55.095Z,929.38
2018-04-01T03:53:55.026Z,929.40
2018-04-01T03:54:54.897Z,929.43
2018-04-01T03:55:54.896Z,929.39
2018-04-01T03:56:54.706Z,929.37
2018-04-01T03:57:54.603Z,929.38
2018-04-01T03:58:54.548Z,929.46
2018-04-01T03:59:54.409Z,929.50
2018-04-01T04:00:54.311Z,929.48
2018-04-01T04:01:54.212Z,929.56
2018-04-01T04:02:54.206Z,929.60
2018-04-01T04:03:54.019Z,929.58
2018-04-01T04:04:53.949Z,929.65
2018-04-01T04:05:53.816Z,929.59
2018-04-01T04:06:53.720Z,929.63
2018-04-01T04:07:53.622Z,929.65
2018-04-01T04:08:53.523Z,929.69
2018-04-01T04:09:53.570Z,929.75
2018-04-01T04:10:53.326Z,929.78
2018-04-01T04:11:53.228Z,929.79
2018-04-01T04:12:53.132Z,929.80
2018-04-01T04:13:53.041Z,929.83
2018-04-01T04:14:52.935Z,929.81
2018-04-01T04:15:52.868Z,929.82
2018-04-01T04:16:52.834Z,929.87
2018-04-01T04:17:52.639Z,929.85
2018-04-01T04:18:52.544Z,929.91
2018-04-01T04:19:52.444Z,929.87
2018-04-01T04:20:52.379Z,929.89
2018-04-01T04:21:52.246Z,929.85
2018-04-01T04:22:52.149Z,929.86
2018-04-01T04:23:52.048Z,929.87
2018-04-01T04:24:51.952Z,929.87
2018-04-01T04:25:51.882Z,929.93
2018-04-01T04:26:51.752Z,929.93
2018-04-01T04:27:51.656Z,929.93
2018-04-01T04:28:51.557Z,929.87
2018-04-01T04:29:51.461Z,929.93
2018-04-01T04:30:51.393Z,929.92
2018-04-01T04:31:51.262Z,929.93
2018-04-01T04:32:51.164Z,929.92
2018-04-01T04:33:51.066Z,929.87
2018-04-01T04:34:50.968Z,929.90
2018-04-01T04:35:50.897Z,929.88
2018-04-01T04:36:50.771Z,929.88
2018-04-01T04:37:50.672Z,929.87
2018-04-01T04:38:50.572Z,929.89
2018-04-01T04:39:50.475Z,929.88
2018-04-01T04:40:50.382Z,929.87
2018-04-01T04:41:50.311Z,929.88
2018-04-01T04:42:50.182Z,929.91
2018-04-01T04:43:50.082Z,929.95
2018-04-01T04:44:49.981Z,929.96
2018-04-01T04:45:49.915Z,929.92
2018-04-01T04:46:49.786Z,929.93
2018-04-01T04:47:49.689Z,929.91
2018-04-01T04:48:49.593Z,929.91
2018-04-01T04:49:49.493Z,929.94
2018-04-01T04:50:49.396Z,929.96
2018-04-01T04:51:49.325Z,929.96
2018-04-01T04:52:49.198Z,929.95
2018-04-01T04:53:49.099Z,929.99
2018-04-01T04:54:49.002Z,930.01
2018-04-01T04:55:48.907Z,930.02
2018-04-01T04:56:48.837Z,930.01
2018-04-01T04:57:48.707Z,930.00
2018-04-01T04:58:48.611Z,930.00
2018-04-01T04:59:48.518Z,929.99
2018-04-01T05:00:48.415Z,930.00
2018-04-01T05:01:48.350Z,930.00
2018-04-01T05:02:48.218Z,929.99
2018-04-01T05:03:48.118Z,929.98
2018-04-01T05:04:48.049Z,929.90
2018-04-01T05:05:47.927Z,929.89
2018-04-01T05:06:47.860Z,929.94
2018-04-01T05:07:47.728Z,929.94
2018-04-01T05:08:47.627Z,930.00
2018-04-01T05:09:47.532Z,930.07
2018-04-01T05:10:47.434Z,930.04
2018-04-01T05:11:47.371Z,930.11
2018-04-01T05:12:47.239Z,930.11
2018-04-01T05:13:47.141Z,930.15
2018-04-01T05:14:47.045Z,930.15
2018-04-01T05:15:46.948Z,930.10
2018-04-01T05:16:46.877Z,930.14
2018-04-01T05:17:46.750Z,930.11
2018-04-01T05:18:46.653Z,930.14
2018-04-01T05:19:46.555Z,930.24
2018-04-01T05:20:46.456Z,930.23
2018-04-01T05:21:46.386Z,930.24
2018-04-01T05:22:46.263Z,930.26
2018-04-01T05:23:46.165Z,930.20
2018-04-01T05:24:46.065Z,930.24
2018-04-01T05:25:45.970Z,930.21
2018-04-01T05:26:45.903Z,930.23
2018-04-01T05:27:45.777Z,930.24
2018-04-01T05:28:45.678Z,930.24
2018-04-01T05:29:45.580Z,930.27
2018-04-01T05:30:45.481Z,930.29
2018-04-01T05:31:45.417Z,930.29
2018-04-01T05:32:45.285Z,930.31
2018-04-01T05:33:45.188Z,930.29
2018-04-01T05:34:45.091Z,930.32
2018-04-01T05:35:44.993Z,930.36
2018-04-01T05:36:44.929Z,930.38
2018-04-01T05:37:44.797Z,930.36
2018-04-01T05:38:44.701Z,930.37
2018-04-01T05:39:44.698Z,930.41
2018-04-01T05:40:44.504Z,930.44
2018-04-01T05:41:44.440Z,930.47
2018-04-01T05:42:44.310Z,930.44
2018-04-01T05:43:44.211Z,930.48
2018-04-01T05:44:44.112Z,930.47
2018-04-01T05:45:44.020Z,930.49
2018-04-01T05:46:43.952Z,930.44
2018-04-01T05:47:43.822Z,930.45
2018-04-01T05:48:43.726Z,930.49
2018-04-01T05:49:43.629Z,930.50
2018-04-01T05:50:43.532Z,930.51
2018-04-01T05:51:43.464Z,930.51
2018-04-01T05:52:43.337Z,930.49
2018-04-01T05:53:43.240Z,930.43
2018-04-01T05:54:43.143Z,930.47
2018-04-01T05:55:43.044Z,930.52
2018-04-01T05:56:42.952Z,930.52
2018-04-01T05:57:42.880Z,930.55
2018-04-01T05:58:42.751Z,930.56
2018-04-01T05:59:42.655Z,930.61
2018-04-01T06:00:42.655Z,930.63
2018-04-01T06:01:42.461Z,930.67
2018-04-01T06:02:42.397Z,930.71
2018-04-01T06:03:42.267Z,930.74
2018-04-01T06:04:42.169Z,930.77
2018-04-01T06:05:42.071Z,930.78
2018-04-01T06:06:41.980Z,930.77
2018-04-01T06:07:41.909Z,930.75
2018-04-01T06:08:41.777Z,930.77
2018-04-01T06:09:41.682Z,930.80
2018-04-01T06:10:41.589Z,930.83
2018-04-01T06:11:41.496Z,930.82
2018-04-01T06:12:41.429Z,930.77
2018-04-01T06:13:42.019Z,930.80
2018-04-01T06:14:41.196Z,930.83
2018-04-01T06:15:41.100Z,930.83
2018-04-01T06:16:41.002Z,930.90
2018-04-01T06:17:40.937Z,930.89
2018-04-01T06:18:40.807Z,930.89
2018-04-01T06:19:40.713Z,930.91
2018-04-01T06:20:40.616Z,930.93
2018-04-01T06:21:40.517Z,930.92
2018-04-01T06:22:40.453Z,930.94
2018-04-01T06:23:40.337Z,931.02
2018-04-01T06:24:40.226Z,931.02
2018-04-01T06:25:40.128Z,931.02
2018-04-01T06:26:40.034Z,931.03
2018-04-01T06:27:39.965Z,931.06
2018-04-01T06:28:39.838Z,931.04
2018-04-01T06:29:39.740Z,931.04
2018-04-01T06:30:39.646Z,931.09
2018-04-01T06:31:39.550Z,931.12
2018-04-01T06:32:39.482Z,931.10
2018-04-01T06:33:39.356Z,931.14
2018-04-01T06:34:39.261Z,931.12
2018-04-01T06:35:39.160Z,931.16
2018-04-01T06:36:39.349Z,931.14
2018-04-01T06:37:39.000Z,931.14
2018-04-01T06:38:38.871Z,931.12
2018-04-01T06:39:38.776Z,931.11
2018-04-01T06:40:38.685Z,931.13
2018-04-01T06:41:38.583Z,931.13
2018-04-01T06:42:38.537Z,931.18
2018-04-01T06:43:38.482Z,931.19
2018-04-01T06:44:38.292Z,931.22
2018-04-01T06:45:38.192Z,931.22
2018-04-01T06:46:38.099Z,931.20
2018-04-01T06:47:38.036Z,931.24
2018-04-01T06:48:37.957Z,931.26
2018-04-01T06:49:37.814Z,931.24
2018-04-01T06:50:37.803Z,931.28
2018-04-01T06:51:37.615Z,931.29
2018-04-01T06:52:37.546Z,931.31
2018-04-01T06:53:37.420Z,931.35
2018-04-01T06:54:37.324Z,931.33
2018-04-01T06:55:37.227Z,931.35
2018-04-01T06:56:37.136Z,931.35
2018-04-01T06:57:37.164Z,931.36
2018-04-01T06:58:36.939Z,931.38
2018-04-01T06:59:36.840Z,931.39
2018-04-01T07:00:36.743Z,931.42
2018-04-01T07:01:36.655Z,931.45
2018-04-01T07:02:36.651Z,931.47
2018-04-01T07:03:36.453Z,931.38
2018-04-01T07:04:36.447Z,931.43
2018-04-01T07:05:36.259Z,931.43
2018-04-01T07:06:36.164Z,931.47
2018-04-01T07:07:36.102Z,931.48
2018-04-01T07:08:35.975Z,931.48
2018-04-01T07:09:35.871Z,931.52
2018-04-01T07:10:35.774Z,931.52
2018-04-01T07:11:35.678Z,931.53
2018-04-01T07:12:35.615Z,931.52
2018-04-01T07:13:35.484Z,931.57
2018-04-01T07:14:35.389Z,931.55
2018-04-01T07:15:35.294Z,931.57
2018-04-01T07:16:35.195Z,931.56
2018-04-01T07:17:35.132Z,931.66
2018-04-01T07:18:35.095Z,931.60
2018-04-01T07:19:34.907Z,931.63
2018-04-01T07:20:34.805Z,931.64
2018-04-01T07:21:34.711Z,931.64
2018-04-01T07:22:34.618Z,931.66
2018-04-01T07:23:34.550Z,931.63
2018-04-01T07:24:34.424Z,931.71
2018-04-01T07:25:34.323Z,931.68
2018-04-01T07:26:34.231Z,931.76
2018-04-01T07:27:34.136Z,931.73
2018-04-01T07:28:34.064Z,931.74
2018-04-01T07:29:33.936Z,931.75
2018-04-01T07:30:33.840Z,931.74
2018-04-01T07:31:33.745Z,931.73
2018-04-01T07:32:33.650Z,931.71
2018-04-01T07:33:33.581Z,931.67
2018-04-01T07:34:33.452Z,931.68
2018-04-01T07:35:33.357Z,931.67
2018-04-01T07:36:33.257Z,931.70
2018-04-01T07:37:33.164Z,931.71
2018-04-01T07:38:33.102Z,931.72
2018-04-01T07:39:32.968Z,931.76
2018-04-01T07:40:32.869Z,931.83
2018-04-01T07:41:32.777Z,931.77
2018-04-01T07:42:32.679Z,931.84
2018-04-01T07:43:32.615Z,931.81
2018-04-01T07:44:32.485Z,931.81
2018-04-01T07:45:32.387Z,931.81
2018-04-01T07:46:32.289Z,931.81
2018-04-01T07:47:32.197Z,931.84
2018-04-01T07:48:32.128Z,931.83
2018-04-01T07:49:31.998Z,931.86
2018-04-01T07:50:31.905Z,931.91
2018-04-01T07:51:31.807Z,931.94
2018-04-01T07:52:31.710Z,931.95
2018-04-01T07:53:31.643Z,931.91
2018-04-01T07:54:31.516Z,931.92
2018-04-01T07:55:31.422Z,931.87
2018-04-01T07:56:31.321Z,931.90
2018-04-01T07:57:31.224Z,931.86
2018-04-01T07:58:31.162Z,931.86
2018-04-01T07:59:31.031Z,931.86
2018-04-01T08:00:30.937Z,931.86
2018-04-01T08:01:30.838Z,931.84
2018-04-01T08:02:30.742Z,931.81
2018-04-01T08:03:30.678Z,931.78
2018-04-01T08:04:30.550Z,931.80
2018-04-01T08:05:30.450Z,931.83
2018-04-01T08:06:30.359Z,931.82
2018-04-01T08:07:30.258Z,931.80
2018-04-01T08:08:30.192Z,931.79
2018-04-01T08:09:30.097Z,931.82
2018-04-01T08:10:29.970Z,931.81
2018-04-01T08:11:29.873Z,931.77
2018-04-01T08:12:29.776Z,931.80
2018-04-01T08:13:29.709Z,931.80
2018-04-01T08:14:29.584Z,931.83
2018-04-01T08:15:29.486Z,931.81
2018-04-01T08:16:29.390Z,931.82
2018-04-01T08:17:29.293Z,931.83
2018-04-01T08:18:29.226Z,931.89
2018-04-01T08:19:29.101Z,931.88
2018-04-01T08:20:29.003Z,931.83
2018-04-01T08:21:28.907Z,931.87
2018-04-01T08:22:28.811Z,931.87
2018-04-01T08:23:28.746Z,931.87
2018-04-01T08:24:28.614Z,931.85
2018-04-01T08:25:28.528Z,931.89
2018-04-01T08:26:28.425Z,931.87
2018-04-01T08:27:28.331Z,931.88
2018-04-01T08:28:28.264Z,931.91
2018-04-01T08:29:28.135Z,931.85
2018-04-01T08:30:28.045Z,931.89
2018-04-01T08:31:27.943Z,931.85
2018-04-01T08:32:27.845Z,931.88
2018-04-01T08:33:27.780Z,931.92
2018-04-01T08:34:27.654Z,931.89
2018-04-01T08:35:27.557Z,931.93
2018-04-01T08:36:27.462Z,931.91
2018-04-01T08:37:27.364Z,931.94
2018-04-01T08:38:27.300Z,931.92
2018-04-01T08:39:27.173Z,931.98
2018-04-01T08:40:27.075Z,931.98
2018-04-01T08:41:27.073Z,932.04
2018-04-01T08:42:26.887Z,931.98
2018-04-01T08:43:26.821Z,931.97
2018-04-01T08:44:26.688Z,932.01
2018-04-01T08:45:26.595Z,931.97
2018-04-01T08:46:26.498Z,932.07
2018-04-01T08:47:26.402Z,932.08
2018-04-01T08:48:26.370Z,932.07
2018-04-01T08:49:26.238Z,932.05
2018-04-01T08:50:26.113Z,932.04
2018-04-01T08:51:26.022Z,932.07
2018-04-01T08:52:25.919Z,932.07
2018-04-01T08:53:25.825Z,932.06
2018-04-01T08:54:25.758Z,932.08
2018-04-01T08:55:25.733Z,932.11
2018-04-01T08:56:25.536Z,932.15
2018-04-01T08:57:25.437Z,932.14
2018-04-01T08:58:25.346Z,932.07
2018-04-01T08:59:25.359Z,932.14
2018-04-01T09:00:25.148Z,932.12
2018-04-01T09:01:25.051Z,932.20
2018-04-01T09:02:25.054Z,932.14
2018-04-01T09:03:24.866Z,932.22
2018-04-01T09:04:24.796Z,932.17
2018-04-01T09:05:24.668Z,932.25
2018-04-01T09:06:24.574Z,932.19
2018-04-01T09:07:24.476Z,932.27
2018-04-01T09:08:24.380Z,932.19
2018-04-01T09:09:24.411Z,932.21
2018-04-01T09:10:24.193Z,932.18
2018-04-01T09:11:24.095Z,932.21
2018-04-01T09:12:24.002Z,932.07
2018-04-01T09:13:23.902Z,932.19
2018-04-01T09:14:23.836Z,932.16
2018-04-01T09:15:23.712Z,932.22
2018-04-01T09:16:23.708Z,932.22
2018-04-01T09:17:23.519Z,932.20
2018-04-01T09:18:23.423Z,932.26
2018-04-01T09:19:23.362Z,932.30
2018-04-01T09:20:23.233Z,932.28
2018-04-01T09:21:23.135Z,932.27
2018-04-01T09:22:23.044Z,932.25
2018-04-01T09:23:23.041Z,932.28
2018-04-01T09:24:22.877Z,932.29
2018-04-01T09:25:22.753Z,932.26
2018-04-01T09:26:22.659Z,932.28
2018-04-01T09:27:22.575Z,932.30
2018-04-01T09:28:22.465Z,932.29
2018-04-01T09:29:22.401Z,932.27
2018-04-01T09:30:22.371Z,932.37
2018-04-01T09:31:22.176Z,932.36
2018-04-01T09:32:22.085Z,932.43
2018-04-01T09:33:21.990Z,932.37
2018-04-01T09:34:21.920Z,932.34
2018-04-01T09:35:21.792Z,932.44
2018-04-01T09:36:21.697Z,932.47
2018-04-01T09:37:21.702Z,932.44
2018-04-01T09:38:21.506Z,932.36
2018-04-01T09:39:21.446Z,932.44
2018-04-01T09:40:21.312Z,932.49
2018-04-01T09:41:21.215Z,932.40
2018-04-01T09:42:21.120Z,932.51
2018-04-01T09:43:21.025Z,932.33
2018-04-01T09:44:21.052Z,932.48
2018-04-01T09:45:20.829Z,932.53
2018-04-01T09:46:20.735Z,932.49
2018-04-01T09:47:20.640Z,932.52
2018-04-01T09:48:20.545Z,932.46
2018-04-01T09:49:20.475Z,932.54
2018-04-01T09:50:20.471Z,932.52
2018-04-01T09:51:20.254Z,932.44
2018-04-01T09:52:20.158Z,932.49
2018-04-01T09:53:20.060Z,932.53
2018-04-01T09:54:19.999Z,932.50
2018-04-01T09:55:19.869Z,932.52
2018-04-01T09:56:19.796Z,932.49
2018-04-01T09:57:19.675Z,932.49
2018-04-01T09:58:19.673Z,932.50
2018-04-01T09:59:19.517Z,932.49
2018-04-01T10:00:19.388Z,932.56
2018-04-01T10:01:19.294Z,932.45
2018-04-01T10:02:19.196Z,932.49
2018-04-01T10:03:19.103Z,932.61
2018-04-01T10:04:19.038Z,932.61
2018-04-01T10:05:18.909Z,932.65
2018-04-01T10:06:18.814Z,932.82
2018-04-01T10:07:18.717Z,932.95
2018-04-01T10:08:18.620Z,932.97
2018-04-01T10:09:18.524Z,933.18
2018-04-01T10:10:18.754Z,933.15
2018-04-01T10:11:18.339Z,933.14
2018-04-01T10:12:18.237Z,933.04
2018-04-01T10:13:18.140Z,932.87
2018-04-01T10:14:18.048Z,932.90
2018-04-01T10:15:17.985Z,932.95
2018-04-01T10:16:17.857Z,932.99
2018-04-01T10:17:17.761Z,932.82
2018-04-01T10:18:17.670Z,932.86
2018-04-01T10:19:17.580Z,932.73
2018-04-01T10:20:17.542Z,932.76
2018-04-01T10:21:17.385Z,932.72
2018-04-01T10:22:17.291Z,932.59
2018-04-01T10:23:17.198Z,932.65
2018-04-01T10:24:17.105Z,932.57
2018-04-01T10:25:17.040Z,932.65
2018-04-01T10:26:16.915Z,932.60
2018-04-01T10:27:16.824Z,932.68
2018-04-01T10:28:16.728Z,932.80
2018-04-01T10:29:16.632Z,932.75
2018-04-01T10:30:16.569Z,932.74
2018-04-01T10:31:16.444Z,932.81
2018-04-01T10:32:16.351Z,932.78
2018-04-01T10:33:16.259Z,932.80
2018-04-01T10:34:16.160Z,932.85
2018-04-01T10:35:16.097Z,932.89
2018-04-01T10:36:15.973Z,932.89
2018-04-01T10:37:15.879Z,932.91
2018-04-01T10:38:15.785Z,932.89
2018-04-01T10:39:15.690Z,932.85
2018-04-01T10:40:15.624Z,932.90
2018-04-01T10:41:15.504Z,932.89
2018-04-01T10:42:15.408Z,932.96
2018-04-01T10:43:15.316Z,932.86
2018-04-01T10:44:15.218Z,932.95
2018-04-01T10:45:15.158Z,933.10
2018-04-01T10:46:15.029Z,933.06
2018-04-01T10:47:14.936Z,933.10
2018-04-01T10:48:14.840Z,933.10
2018-04-01T10:49:14.747Z,933.27
2018-04-01T10:50:14.684Z,933.36
2018-04-01T10:51:14.560Z,933.46
2018-04-01T10:52:14.465Z,933.66
2018-04-01T10:53:14.374Z,933.37
2018-04-01T10:54:14.277Z,933.38
2018-04-01T10:55:14.215Z,933.51
2018-04-01T10:56:14.091Z,933.52
2018-04-01T10:57:14.003Z,933.36
2018-04-01T10:58:13.902Z,933.30
2018-04-01T10:59:13.811Z,934.59
2018-04-01T11:00:13.752Z,934.62
2018-04-01T11:01:13.624Z,933.64
2018-04-01T11:02:13.534Z,933.45
2018-04-01T11:03:13.442Z,933.30
2018-04-01T11:04:13.347Z,933.29
2018-04-01T11:05:13.328Z,933.19
2018-04-01T11:06:13.165Z,933.21
2018-04-01T11:07:13.075Z,933.19
2018-04-01T11:08:12.981Z,933.22
2018-04-01T11:09:12.892Z,933.14
2018-04-01T11:10:12.836Z,933.15
2018-04-01T11:11:12.710Z,933.06
2018-04-01T11:12:12.612Z,933.04
2018-04-01T11:13:12.523Z,933.13
2018-04-01T11:14:12.428Z,933.15
2018-04-01T11:15:12.339Z,933.17
2018-04-01T11:16:12.279Z,933.17
2018-04-01T11:17:12.152Z,933.10
2018-04-01T11:18:12.061Z,933.13
2018-04-01T11:19:11.967Z,933.18
2018-04-01T11:20:11.877Z,933.14
2018-04-01T11:21:11.813Z,933.19
2018-04-01T11:22:11.686Z,933.17
2018-04-01T11:23:11.594Z,933.14
2018-04-01T11:24:11.503Z,933.14
2018-04-01T11:25:11.414Z,933.18
2018-04-01T11:26:11.346Z,933.18
2018-04-01T11:27:11.223Z,933.19
2018-04-01T11:28:11.240Z,933.20
2018-04-01T11:29:11.035Z,933.21
2018-04-01T11:30:10.944Z,933.21
2018-04-01T11:31:10.889Z,933.23
2018-04-01T11:32:10.754Z,933.24
2018-04-01T11:33:10.659Z,933.30
2018-04-01T11:34:10.564Z,933.26
2018-04-01T11:35:10.564Z,933.35
2018-04-01T11:36:10.414Z,933.37
2018-04-01T11:37:10.281Z,933.39
2018-04-01T11:38:10.191Z,933.34
2018-04-01T11:39:10.093Z,933.36
2018-04-01T11:40:09.995Z,933.36
2018-04-01T11:41:09.932Z,933.34
2018-04-01T11:42:09.808Z,933.34
2018-04-01T11:43:09.712Z,933.37
2018-04-01T11:44:09.616Z,933.33
2018-04-01T11:45:09.524Z,933.40
2018-04-01T11:46:09.461Z,933.39
2018-04-01T11:47:09.344Z,933.39
2018-04-01T11:48:09.241Z,933.40
2018-04-01T11:49:09.142Z,933.40
2018-04-01T11:50:09.052Z,933.54
2018-04-01T11:51:08.984Z,933.54
2018-04-01T11:52:08.853Z,933.54
2018-04-01T11:53:08.761Z,933.52
2018-04-01T11:54:08.666Z,933.50
2018-04-01T11:55:08.569Z,933.48
2018-04-01T11:56:08.503Z,933.47
2018-04-01T11:57:08.379Z,933.53
2018-04-01T11:58:08.283Z,933.48
2018-04-01T11:59:08.185Z,933.52
2018-04-01T12:00:08.091Z,933.56
2018-04-01T12:01:08.029Z,933.52
2018-04-01T12:02:07.901Z,933.61
2018-04-01T12:03:07.808Z,933.76
2018-04-01T12:04:07.709Z,933.85
2018-04-01T12:05:07.613Z,933.60
2018-04-01T12:06:07.553Z,933.49
2018-04-01T12:07:07.424Z,933.44
2018-04-01T12:08:07.331Z,933.38
2018-04-01T12:09:07.235Z,933.38
2018-04-01T12:10:07.144Z,933.35
2018-04-01T12:11:07.078Z,933.29
2018-04-01T12:12:06.951Z,933.34
2018-04-01T12:13:06.856Z,933.37
2018-04-01T12:14:06.762Z,933.37
2018-04-01T12:15:06.666Z,933.36
2018-04-01T12:16:06.606Z,933.37
2018-04-01T12:17:06.474Z,933.44
2018-04-01T12:18:06.495Z,933.45
2018-04-01T12:19:06.290Z,933.46
2018-04-01T12:20:06.195Z,933.43
2018-04-01T12:21:06.129Z,933.47
2018-04-01T12:22:06.001Z,933.48
2018-04-01T12:23:05.905Z,933.50
2018-04-01T12:24:05.812Z,933.52
2018-04-01T12:25:05.810Z,933.55
2018-04-01T12:26:05.648Z,933.50
2018-04-01T12:27:05.523Z,933.46